Time;durP1;ratioP1;P1;durP2;ratioP2;P2;SDS_P1;SDS_P2;PMS_P1;PMS_P2;Temp;Humidity;BMP_temperature;BMP_pressure;BME280_temperature;BME280_humidity;BME280_pressure;Samples;Min_cycle;Max_cycle;Signal;HPM_P1;HPM_P2
2021/05/02 00:00:13;;;;;;;28.60;17.77;;;8.30;99.90;;;;;;5076882;28;20170;-78
2021/05/02 00:02:39;;;;;;;23.65;17.98;;;8.40;99.90;;;;;;5076679;28;20185;-78
2021/05/02 00:05:05;;;;;;;20.70;16.35;;;8.50;99.90;;;;;;5076457;28;20533;-78
2021/05/02 00:07:32;;;;;;;19.77;17.23;;;8.40;99.90;;;;;;5075046;28;20201;-78
2021/05/02 00:09:58;;;;;;;25.60;17.75;;;8.20;99.90;;;;;;5075330;28;20175;-78
2021/05/02 00:12:25;;;;;;;24.15;18.45;;;8.20;99.90;;;;;;5074891;28;20194;-79
2021/05/02 00:14:50;;;;;;;25.25;19.02;;;8.20;99.90;;;;;;5074625;28;20182;-78
2021/05/02 00:17:16;;;;;;;22.23;18.63;;;8.10;99.90;;;;;;5075247;28;20170;-78
2021/05/02 00:19:44;;;;;;;27.50;19.92;;;8.10;99.90;;;;;;5075075;28;20165;-78
2021/05/02 00:22:11;;;;;;;25.50;19.23;;;8.20;99.90;;;;;;5076265;28;20170;-78
2021/05/02 00:24:37;;;;;;;29.60;19.83;;;8.10;99.90;;;;;;5076463;28;20246;-78
2021/05/02 00:27:04;;;;;;;24.17;19.42;;;8.10;99.90;;;;;;5075944;28;20530;-78
2021/05/02 00:29:31;;;;;;;23.75;18.75;;;8.10;99.90;;;;;;5075965;28;20170;-79
2021/05/02 00:31:58;;;;;;;27.25;20.38;;;8.10;99.90;;;;;;5076299;28;20283;-78
2021/05/02 00:34:27;;;;;;;22.63;19.13;;;8.10;99.90;;;;;;5075917;28;20242;-79
2021/05/02 00:36:53;;;;;;;28.40;20.48;;;8.20;99.90;;;;;;5076017;28;20158;-78
2021/05/02 00:39:18;;;;;;;21.40;19.10;;;8.20;99.90;;;;;;5076127;28;20185;-78
2021/05/02 00:41:46;;;;;;;25.25;20.00;;;8.20;99.90;;;;;;5075844;28;20623;-78
2021/05/02 00:44:25;;;;;;;25.58;19.10;;;8.10;99.90;;;;;;5075267;28;20178;-78
2021/05/02 00:46:52;;;;;;;24.83;19.88;;;8.10;99.90;;;;;;5075732;28;20201;-78
2021/05/02 00:49:42;;;;;;;27.25;19.95;;;8.00;99.90;;;;;;5074531;28;20578;-78
2021/05/02 00:52:29;;;;;;;23.65;19.65;;;8.10;99.90;;;;;;5076039;28;20181;-78
2021/05/02 00:55:11;;;;;;;31.88;20.55;;;8.20;99.90;;;;;;5074622;28;20173;-78
2021/05/02 00:57:56;;;;;;;25.23;20.30;;;8.10;99.90;;;;;;5075833;28;20186;-78
2021/05/02 01:00:23;;;;;;;24.20;20.23;;;8.20;99.90;;;;;;5074490;28;20163;-79
2021/05/02 01:02:56;;;;;;;23.95;20.58;;;8.30;99.90;;;;;;5075446;28;20240;-78
2021/05/02 01:05:24;;;;;;;24.73;20.58;;;8.30;99.90;;;;;;5074311;28;20167;-78
2021/05/02 01:07:57;;;;;;;29.13;20.05;;;8.30;99.90;;;;;;5074258;28;20198;-79
2021/05/02 01:10:23;;;;;;;30.52;19.88;;;8.40;99.90;;;;;;5073731;28;20173;-79
2021/05/02 01:12:53;;;;;;;25.73;19.58;;;8.40;99.90;;;;;;5075374;28;20173;-78
2021/05/02 01:15:24;;;;;;;25.58;20.02;;;8.50;99.90;;;;;;5074929;28;20678;-78
2021/05/02 01:18:14;;;;;;;26.25;20.05;;;8.50;99.90;;;;;;5075359;28;20163;-78
2021/05/02 01:20:42;;;;;;;25.33;19.88;;;8.60;99.90;;;;;;5073209;28;20235;-78
2021/05/02 01:23:16;;;;;;;28.48;20.42;;;8.60;99.90;;;;;;5073689;28;20569;-78
2021/05/02 01:25:42;;;;;;;24.75;18.95;;;8.70;99.90;;;;;;5074059;28;20162;-78
2021/05/02 01:28:09;;;;;;;23.30;17.80;;;8.60;99.90;;;;;;5057238;28;20291;-78
2021/05/02 01:30:35;;;;;;;27.02;18.00;;;8.60;99.90;;;;;;5073904;28;20174;-78
2021/05/02 01:33:01;;;;;;;24.92;18.13;;;8.60;99.90;;;;;;5075017;28;20162;-78
2021/05/02 01:35:26;;;;;;;26.98;19.80;;;8.50;99.90;;;;;;5073651;28;20534;-78
2021/05/02 01:37:53;;;;;;;26.25;19.08;;;8.60;99.90;;;;;;5073750;28;20273;-78
2021/05/02 01:40:19;;;;;;;25.13;19.05;;;8.60;99.90;;;;;;5075030;28;20576;-78
2021/05/02 01:42:49;;;;;;;27.25;19.00;;;8.60;99.90;;;;;;5074742;28;20162;-78
2021/05/02 01:45:15;;;;;;;23.63;18.70;;;8.60;99.90;;;;;;5074713;28;20186;-78
2021/05/02 01:47:58;;;;;;;26.92;19.23;;;8.60;99.90;;;;;;5073464;28;20658;-79
2021/05/02 01:50:26;;;;;;;29.40;18.98;;;8.50;99.90;;;;;;5074857;28;20163;-78
2021/05/02 01:52:53;;;;;;;27.85;19.75;;;8.40;99.90;;;;;;5073772;28;20171;-78
2021/05/02 01:55:21;;;;;;;23.58;19.00;;;8.40;99.90;;;;;;5074685;28;20159;-78
2021/05/02 01:57:49;;;;;;;34.75;19.73;;;8.30;99.90;;;;;;5074662;28;20167;-78
2021/05/02 02:00:24;;;;;;;27.63;19.17;;;8.20;99.90;;;;;;5074467;28;20158;-79
2021/05/02 02:02:57;;;;;;;29.48;19.42;;;8.10;99.90;;;;;;5073150;28;20178;-78
2021/05/02 02:05:24;;;;;;;26.00;19.58;;;8.00;99.90;;;;;;5072141;28;20171;-78
2021/05/02 02:07:50;;;;;;;27.67;20.15;;;7.80;99.90;;;;;;5072734;28;20190;-78
2021/05/02 02:10:20;;;;;;;21.55;19.17;;;7.70;99.90;;;;;;5074429;28;20175;-79
2021/05/02 02:12:47;;;;;;;29.63;19.42;;;7.60;99.90;;;;;;5073153;28;20266;-78
2021/05/02 02:15:14;;;;;;;25.88;19.90;;;7.60;99.90;;;;;;5055564;28;20190;-78
2021/05/02 02:17:41;;;;;;;31.70;19.60;;;7.50;99.90;;;;;;5074270;28;20170;-78
2021/05/02 02:20:07;;;;;;;23.83;19.02;;;7.60;99.90;;;;;;5073034;28;20216;-78
2021/05/02 02:22:41;;;;;;;30.38;20.38;;;7.50;99.90;;;;;;5074146;28;20175;-78
2021/05/02 02:25:09;;;;;;;31.67;20.38;;;7.50;99.90;;;;;;5074277;28;20190;-78
2021/05/02 02:27:35;;;;;;;29.25;20.83;;;7.50;99.90;;;;;;5076358;28;20193;-78
2021/05/02 02:30:05;;;;;;;29.77;21.98;;;7.60;99.90;;;;;;5093117;28;20521;-79
2021/05/02 02:32:33;;;;;;;30.33;21.08;;;7.50;99.90;;;;;;5077035;28;20166;-78
2021/05/02 02:35:01;;;;;;;29.38;19.60;;;7.50;99.90;;;;;;5072525;28;20235;-78
2021/05/02 02:37:27;;;;;;;30.13;19.73;;;7.40;99.90;;;;;;5074344;28;20521;-78
2021/05/02 02:39:58;;;;;;;24.00;18.73;;;7.30;99.90;;;;;;5072733;28;20615;-78
2021/05/02 02:42:24;;;;;;;28.00;19.40;;;7.20;99.90;;;;;;5081060;28;20170;-78
2021/05/02 02:44:59;;;;;;;31.42;21.00;;;7.10;99.90;;;;;;5081098;28;20262;-79
2021/05/02 02:47:34;;;;;;;26.80;20.47;;;7.10;99.90;;;;;;5081374;28;20185;-78
2021/05/02 02:50:01;;;;;;;26.02;19.63;;;7.00;99.90;;;;;;5078426;28;20158;-78
2021/05/02 02:52:28;;;;;;;27.25;21.27;;;7.00;99.90;;;;;;5074054;28;20173;-78
2021/05/02 02:55:04;;;;;;;29.77;21.67;;;6.90;99.90;;;;;;5073755;28;20167;-78
2021/05/02 02:57:40;;;;;;;28.60;22.23;;;6.80;99.90;;;;;;5073338;28;20170;-78
2021/05/02 03:00:06;;;;;;;30.77;22.40;;;6.80;99.90;;;;;;5073431;28;20603;-79
2021/05/02 03:02:36;;;;;;;30.23;22.02;;;6.90;99.90;;;;;;5073258;28;20216;-78
2021/05/02 03:05:02;;;;;;;45.27;22.90;;;6.90;99.90;;;;;;5072016;28;20262;-78
2021/05/02 03:07:32;;;;;;;35.40;23.27;;;6.90;99.90;;;;;;5073514;28;20293;-78
2021/05/02 03:09:58;;;;;;;32.57;22.20;;;6.90;99.90;;;;;;5073690;28;20171;-78
2021/05/02 03:12:24;;;;;;;30.03;21.93;;;6.90;99.90;;;;;;5073388;28;20198;-78
2021/05/02 03:14:52;;;;;;;33.30;23.23;;;6.90;99.90;;;;;;5073416;28;20269;-78
2021/05/02 03:17:27;;;;;;;28.27;22.13;;;6.90;99.90;;;;;;5070875;28;20261;-78
2021/05/02 03:20:14;;;;;;;31.27;21.33;;;7.00;99.90;;;;;;5072204;28;20684;-79
2021/05/02 03:22:42;;;;;;;27.53;20.53;;;7.00;99.90;;;;;;5072115;28;20167;-78
2021/05/02 03:25:10;;;;;;;28.47;21.00;;;7.00;99.90;;;;;;5072992;28;20216;-78
2021/05/02 03:27:49;;;;;;;29.27;22.60;;;7.00;99.90;;;;;;5073096;28;20277;-78
2021/05/02 03:30:18;;;;;;;25.23;20.37;;;6.90;99.90;;;;;;5073554;28;20166;-78
2021/05/02 03:32:47;;;;;;;28.73;20.93;;;7.10;99.90;;;;;;5071073;28;20254;-78
2021/05/02 03:35:15;;;;;;;33.42;20.33;;;7.20;99.90;;;;;;5073106;28;20171;-78
2021/05/02 03:37:47;;;;;;;26.55;19.88;;;7.10;99.90;;;;;;5071843;28;20624;-78
2021/05/02 03:40:13;;;;;;;26.40;19.83;;;6.80;99.90;;;;;;5072081;28;20174;-79
2021/05/02 03:42:39;;;;;;;33.28;21.17;;;6.70;99.90;;;;;;5072878;28;20175;-78
2021/05/02 03:45:05;;;;;;;34.03;22.67;;;6.90;99.90;;;;;;5071314;28;20183;-78
2021/05/02 03:47:31;;;;;;;29.98;21.67;;;7.20;99.90;;;;;;5072830;28;20521;-78
2021/05/02 03:49:56;;;;;;;26.65;22.67;;;7.50;99.90;;;;;;5073174;28;20178;-79
2021/05/02 03:52:22;;;;;;;30.73;24.25;;;7.70;99.90;;;;;;5071668;28;20167;-78
2021/05/02 03:54:54;;;;;;;40.67;25.63;;;7.80;99.90;;;;;;5071861;28;20178;-78
2021/05/02 03:57:20;;;;;;;39.40;25.17;;;7.90;99.90;;;;;;5072794;28;20627;-79
2021/05/02 03:59:46;;;;;;;35.08;26.27;;;8.00;99.90;;;;;;5073114;28;20166;-78
2021/05/02 04:02:14;;;;;;;40.00;26.15;;;8.10;99.90;;;;;;5072914;28;20619;-78
2021/05/02 04:04:41;;;;;;;34.35;25.38;;;8.00;99.90;;;;;;5055150;28;20643;-78
2021/05/02 04:07:10;;;;;;;40.60;25.83;;;8.00;99.90;;;;;;5072317;28;20281;-78
2021/05/02 04:09:37;;;;;;;37.55;25.05;;;8.00;99.90;;;;;;5072942;28;20197;-78
2021/05/02 04:12:04;;;;;;;35.65;23.83;;;8.00;99.90;;;;;;5071763;28;20171;-78
2021/05/02 04:14:30;;;;;;;40.88;26.20;;;8.00;99.90;;;;;;5072099;28;20202;-78
2021/05/02 04:16:56;;;;;;;38.17;24.95;;;8.10;99.90;;;;;;5072556;28;20631;-78
2021/05/02 04:19:22;;;;;;;35.33;25.30;;;8.10;99.90;;;;;;5071582;28;20217;-79
2021/05/02 04:21:48;;;;;;;31.60;24.08;;;8.00;99.90;;;;;;5071311;28;20175;-78
2021/05/02 04:24:14;;;;;;;35.45;24.20;;;8.00;99.90;;;;;;5071373;28;20673;-78
2021/05/02 04:26:48;;;;;;;35.95;25.25;;;8.10;99.90;;;;;;5072728;28;20294;-78
2021/05/02 04:29:14;;;;;;;31.67;22.65;;;8.20;99.90;;;;;;5075168;28;20203;-78
2021/05/02 04:31:39;;;;;;;27.58;22.73;;;8.30;99.90;;;;;;5075095;28;20217;-78
2021/05/02 04:34:06;;;;;;;41.83;24.83;;;8.50;99.90;;;;;;5074989;28;20264;-79
2021/05/02 04:36:32;;;;;;;34.88;24.33;;;8.70;99.90;;;;;;5057890;28;20581;-78
2021/05/02 04:38:58;;;;;;;38.05;23.45;;;8.80;99.90;;;;;;5075040;28;20167;-78
2021/05/02 04:41:24;;;;;;;35.22;23.23;;;9.00;99.90;;;;;;5074931;28;20174;-78
2021/05/02 04:43:49;;;;;;;28.45;22.88;;;9.10;99.90;;;;;;5075361;28;20174;-78
2021/05/02 04:46:16;;;;;;;27.45;22.42;;;9.30;99.90;;;;;;5075695;28;20170;-78
2021/05/02 04:48:42;;;;;;;38.22;23.63;;;9.20;99.90;;;;;;5074595;28;20573;-78
2021/05/02 04:51:10;;;;;;;33.72;23.70;;;9.20;99.90;;;;;;5074391;28;20178;-78
2021/05/02 04:53:35;;;;;;;35.10;23.50;;;9.30;99.90;;;;;;5075906;28;20167;-78
2021/05/02 04:56:01;;;;;;;33.38;23.75;;;9.50;99.90;;;;;;5075962;28;20167;-78
2021/05/02 04:58:27;;;;;;;31.98;22.92;;;9.60;99.90;;;;;;5074347;28;20167;-78
2021/05/02 05:00:52;;;;;;;30.23;22.63;;;9.80;99.90;;;;;;5074627;28;20615;-78
2021/05/02 05:03:18;;;;;;;31.55;21.05;;;9.80;99.90;;;;;;5074088;28;20278;-78
2021/05/02 05:05:44;;;;;;;31.40;23.10;;;9.80;99.90;;;;;;5074234;28;20501;-78
2021/05/02 05:08:10;;;;;;;29.60;21.17;;;9.70;99.90;;;;;;5075547;28;20201;-78
2021/05/02 05:10:36;;;;;;;31.88;20.83;;;9.70;99.90;;;;;;5073902;28;20273;-78
2021/05/02 05:13:02;;;;;;;26.95;21.00;;;9.70;99.90;;;;;;5075403;28;20179;-78
2021/05/02 05:15:28;;;;;;;25.58;20.25;;;9.70;99.90;;;;;;5075471;28;20165;-78
2021/05/02 05:17:54;;;;;;;25.08;20.58;;;9.60;99.90;;;;;;5075328;28;20261;-78
2021/05/02 05:20:20;;;;;;;23.50;20.50;;;9.50;99.90;;;;;;5057470;28;20194;-78
2021/05/02 05:22:45;;;;;;;25.73;20.25;;;9.50;99.90;;;;;;5075364;28;20170;-78
2021/05/02 05:25:11;;;;;;;24.80;19.92;;;9.50;99.90;;;;;;5075156;28;20174;-78
2021/05/02 05:27:37;;;;;;;25.90;20.67;;;9.50;99.90;;;;;;5073987;28;20190;-78
2021/05/02 05:30:04;;;;;;;25.92;20.73;;;9.60;99.90;;;;;;5074160;28;20666;-78
2021/05/02 05:32:30;;;;;;;25.52;19.92;;;9.80;99.90;;;;;;5074694;28;20565;-78
2021/05/02 05:34:55;;;;;;;27.05;22.40;;;9.80;99.90;;;;;;5074883;28;20249;-78
2021/05/02 05:37:21;;;;;;;28.73;22.45;;;9.90;99.90;;;;;;5073764;28;20178;-78
2021/05/02 05:39:48;;;;;;;26.60;20.67;;;9.90;99.90;;;;;;5074212;28;20163;-78
2021/05/02 05:42:14;;;;;;;31.73;21.17;;;9.90;99.90;;;;;;5073162;28;20237;-78
2021/05/02 05:44:39;;;;;;;30.65;20.55;;;9.90;99.90;;;;;;5076601;28;20570;-78
2021/05/02 05:47:05;;;;;;;29.80;21.20;;;9.80;99.90;;;;;;5095068;28;20204;-78
2021/05/02 05:49:31;;;;;;;27.25;20.83;;;9.80;99.90;;;;;;5095044;28;20256;-78
2021/05/02 05:51:56;;;;;;;30.33;21.35;;;9.70;99.90;;;;;;5077061;28;20633;-78
2021/05/02 05:54:22;;;;;;;29.73;21.55;;;9.70;99.90;;;;;;5093949;28;20174;-78
2021/05/02 05:56:49;;;;;;;25.20;20.63;;;9.80;99.90;;;;;;5093629;28;20535;-78
2021/05/02 05:59:15;;;;;;;22.85;19.73;;;9.90;99.90;;;;;;5093397;28;20175;-79
2021/05/02 06:01:41;;;;;;;32.63;21.88;;;10.00;99.90;;;;;;5095102;28;20165;-78
2021/05/02 06:04:07;;;;;;;21.52;19.23;;;10.20;99.90;;;;;;5085650;28;20195;-78
2021/05/02 06:06:35;;;;;;;22.95;19.08;;;10.30;99.90;;;;;;5073129;28;20555;-79
2021/05/02 06:09:06;;;;;;;24.55;18.25;;;10.70;99.90;;;;;;5074434;28;20171;-79
2021/05/02 06:11:33;;;;;;;20.52;17.85;;;11.00;99.90;;;;;;5073637;28;20667;-78
2021/05/02 06:13:59;;;;;;;20.70;16.80;;;11.60;99.90;;;;;;5074300;28;20643;-79
2021/05/02 06:16:25;;;;;;;15.30;13.68;;;12.60;99.90;;;;;;5072692;28;20174;-78
2021/05/02 06:18:58;;;;;;;16.58;13.40;;;12.90;99.90;;;;;;5074179;28;20216;-78
2021/05/02 06:21:25;;;;;;;17.25;14.73;;;12.80;99.90;;;;;;5072895;28;20171;-78
2021/05/02 06:23:52;;;;;;;14.82;13.38;;;12.80;99.90;;;;;;5072842;28;20167;-79
2021/05/02 06:26:19;;;;;;;13.48;12.27;;;14.10;99.90;;;;;;5074018;28;20170;-79
2021/05/02 06:28:46;;;;;;;12.05;10.77;;;16.20;99.90;;;;;;5073619;28;20166;-79
2021/05/02 06:31:12;;;;;;;12.07;11.02;;;18.30;99.90;;;;;;5073965;28;20611;-79
2021/05/02 06:33:39;;;;;;;10.35;9.25;;;20.10;99.90;;;;;;5072485;28;20199;-79
2021/05/02 06:36:06;;;;;;;9.32;8.43;;;21.80;99.90;;;;;;5073593;28;20191;-79
2021/05/02 06:38:32;;;;;;;10.05;8.27;;;23.30;99.90;;;;;;5072633;28;20228;-79
2021/05/02 06:40:58;;;;;;;8.65;7.78;;;24.10;96.10;;;;;;5073195;28;20249;-79
2021/05/02 06:43:24;;;;;;;11.15;8.38;;;24.10;95.00;;;;;;5072411;28;20262;-79
2021/05/02 06:45:49;;;;;;;8.18;7.40;;;24.00;94.70;;;;;;5073912;28;20177;-79
2021/05/02 06:48:15;;;;;;;7.88;6.85;;;24.80;94.50;;;;;;5072241;28;20198;-79
2021/05/02 06:50:41;;;;;;;7.68;6.78;;;26.10;92.10;;;;;;5072193;28;20181;-79
2021/05/02 06:53:07;;;;;;;9.82;6.82;;;26.80;90.10;;;;;;5073755;28;20190;-79
2021/05/02 06:55:33;;;;;;;6.32;5.72;;;27.70;85.70;;;;;;5073523;28;20167;-79
2021/05/02 06:58:00;;;;;;;8.30;6.10;;;27.60;86.00;;;;;;5055468;28;20642;-79
2021/05/02 07:00:29;;;;;;;5.55;5.15;;;27.70;84.00;;;;;;5071961;28;20174;-79
2021/05/02 07:02:55;;;;;;;8.48;5.88;;;28.30;83.30;;;;;;5073180;28;20194;-80
2021/05/02 07:05:21;;;;;;;8.23;4.22;;;29.40;80.30;;;;;;5073578;28;20200;-80
2021/05/02 07:07:47;;;;;;;6.75;4.22;;;30.20;77.80;;;;;;5072919;28;20194;-79
2021/05/02 07:10:13;;;;;;;5.07;4.65;;;30.40;73.30;;;;;;5073357;28;20170;-81
2021/05/02 07:12:39;;;;;;;5.65;4.97;;;29.70;76.00;;;;;;5073429;28;20177;-81
2021/05/02 07:15:05;;;;;;;5.18;4.68;;;27.70;76.70;;;;;;5073096;28;20167;-81
2021/05/02 07:17:31;;;;;;;5.85;4.68;;;27.60;78.70;;;;;;5071998;28;20570;-81
2021/05/02 07:19:58;;;;;;;6.72;4.75;;;28.20;76.90;;;;;;5072229;28;20270;-81
2021/05/02 07:22:26;;;;;;;6.05;3.55;;;28.70;76.70;;;;;;5073330;28;20253;-81
2021/05/02 07:24:52;;;;;;;4.40;3.25;;;30.00;73.80;;;;;;5072003;28;20605;-81
2021/05/02 07:27:18;;;;;;;6.60;3.13;;;30.70;69.80;;;;;;5072180;28;20203;-80
2021/05/02 07:29:44;;;;;;;8.10;3.00;;;32.00;68.30;;;;;;5072049;28;20501;-80
2021/05/02 07:32:10;;;;;;;4.50;2.50;;;32.80;65.00;;;;;;5073299;28;20177;-80
2021/05/02 07:34:35;;;;;;;4.30;2.80;;;33.10;63.30;;;;;;5073016;28;20167;-80
2021/05/02 07:37:01;;;;;;;5.65;2.65;;;33.10;61.60;;;;;;5072604;28;20178;-80
2021/05/02 07:39:27;;;;;;;6.40;2.40;;;32.90;60.90;;;;;;5072960;28;20205;-80
2021/05/02 07:41:53;;;;;;;5.28;2.25;;;33.10;61.50;;;;;;5073245;28;20162;-80
2021/05/02 07:44:19;;;;;;;3.65;2.20;;;33.80;58.90;;;;;;5073357;28;20174;-80
2021/05/02 07:46:45;;;;;;;3.25;2.42;;;32.70;60.10;;;;;;5072442;28;20206;-80
2021/05/02 07:49:10;;;;;;;3.42;2.28;;;33.60;58.30;;;;;;5073209;28;20249;-78
2021/05/02 07:51:36;;;;;;;5.28;2.55;;;34.00;58.50;;;;;;5072997;28;20261;-78
2021/05/02 07:54:02;;;;;;;7.32;2.20;;;35.30;56.10;;;;;;5071463;28;20174;-78
2021/05/02 07:56:28;;;;;;;5.03;2.33;;;33.70;56.00;;;;;;5072695;28;20162;-77
2021/05/02 07:58:53;;;;;;;7.10;2.50;;;30.10;58.80;;;;;;5071700;28;20189;-81
2021/05/02 08:01:19;;;;;;;5.72;2.42;;;27.70;62.10;;;;;;5072931;28;20171;-79
2021/05/02 08:03:45;;;;;;;7.35;2.40;;;25.90;67.20;;;;;;5075232;28;20530;-79
2021/05/02 08:06:10;;;;;;;9.60;2.60;;;26.40;67.50;;;;;;5076652;28;20182;-79
2021/05/02 08:08:36;;;;;;;3.70;2.63;;;28.50;65.50;;;;;;5076099;28;20218;-81
2021/05/02 08:11:02;;;;;;;3.70;2.15;;;30.20;62.70;;;;;;5076656;28;20162;-82
2021/05/02 08:13:27;;;;;;;8.05;2.53;;;30.30;60.20;;;;;;5075191;28;20167;-81
2021/05/02 08:15:53;;;;;;;5.45;2.33;;;28.50;60.50;;;;;;5075261;28;20505;-82
2021/05/02 08:18:19;;;;;;;12.00;2.60;;;25.70;65.10;;;;;;5076530;28;20238;-81
2021/05/02 08:20:44;;;;;;;7.30;2.42;;;24.00;69.80;;;;;;5058636;28;20171;-80
2021/05/02 08:23:10;;;;;;;3.90;2.22;;;23.80;70.10;;;;;;5075130;28;20163;-82
2021/05/02 08:25:37;;;;;;;4.88;2.45;;;25.60;68.10;;;;;;5058501;28;20567;-82
2021/05/02 08:28:03;;;;;;;5.57;2.30;;;28.00;64.10;;;;;;5076224;28;20293;-81
2021/05/02 08:30:29;;;;;;;5.03;1.88;;;29.50;60.00;;;;;;5076300;28;20249;-80
2021/05/02 08:32:55;;;;;;;2.33;1.73;;;30.20;60.30;;;;;;5075837;28;20333;-81
2021/05/02 08:35:20;;;;;;;3.22;1.98;;;29.70;60.70;;;;;;5074913;28;20167;-81
2021/05/02 08:37:46;;;;;;;4.50;1.70;;;29.70;59.10;;;;;;5074506;28;20183;-81
2021/05/02 08:40:13;;;;;;;22.48;2.03;;;30.80;60.30;;;;;;5074168;28;20174;-81
2021/05/02 08:42:39;;;;;;;6.70;1.98;;;31.50;57.80;;;;;;5074084;28;20171;-81
2021/05/02 08:45:06;;;;;;;6.47;2.10;;;30.90;56.90;;;;;;5076015;28;20182;-81
2021/05/02 08:47:38;;;;;;;3.50;1.80;;;29.50;58.80;;;;;;5073999;28;20201;-81
2021/05/02 08:50:09;;;;;;;6.07;2.00;;;28.30;57.40;;;;;;5076177;28;20159;-80
2021/05/02 08:52:35;;;;;;;4.05;1.52;;;25.60;60.20;;;;;;5075778;28;20166;-82
2021/05/02 08:55:03;;;;;;;3.40;2.00;;;24.40;63.10;;;;;;5074505;28;20175;-79
2021/05/02 08:57:29;;;;;;;2.90;2.13;;;26.70;61.80;;;;;;5069202;28;20182;-81
2021/05/02 08:59:55;;;;;;;5.75;1.73;;;29.40;57.00;;;;;;5081389;28;20182;-80
2021/05/02 09:02:25;;;;;;;3.85;2.30;;;31.40;57.10;;;;;;5094058;28;20186;-81
2021/05/02 09:05:03;;;;;;;2.47;1.67;;;33.20;55.70;;;;;;5075747;28;20156;-81
2021/05/02 09:07:46;;;;;;;4.18;2.00;;;34.80;52.90;;;;;;5064374;28;20617;-82
2021/05/02 09:10:13;;;;;;;1.95;1.45;;;33.20;52.50;;;;;;5055620;28;20676;-81
2021/05/02 09:12:41;;;;;;;4.68;1.55;;;30.50;53.50;;;;;;5054499;28;20256;-82
2021/05/02 09:15:20;;;;;;;4.30;1.92;;;29.60;55.90;;;;;;5055820;28;20263;-82
2021/05/02 09:17:58;;;;;;;6.03;2.63;;;30.50;54.80;;;;;;5064255;28;20172;-83
2021/05/02 09:20:44;;;;;;;1.95;1.20;;;31.90;54.10;;;;;;5060627;28;20219;-82
2021/05/02 09:23:12;;;;;;;1.20;1.10;;;32.90;52.60;;;;;;5074237;28;20239;-83
2021/05/02 09:25:47;;;;;;;4.30;2.30;;;35.00;51.60;;;;;;5075584;28;20182;-82
2021/05/02 09:28:13;;;;;;;3.85;1.80;;;32.30;52.70;;;;;;5074897;28;20198;-83
2021/05/02 09:30:39;;;;;;;4.40;1.80;;;28.60;56.60;;;;;;5073699;28;20758;-82
2021/05/02 09:33:04;;;;;;;8.02;2.30;;;25.60;61.30;;;;;;5064876;28;20178;-81
2021/05/02 09:35:35;;;;;;;3.20;1.52;;;23.10;66.00;;;;;;5055090;28;20168;-82
2021/05/02 09:38:11;;;;;;;3.17;1.70;;;21.20;68.40;;;;;;5053783;28;20168;-81
2021/05/02 09:40:51;;;;;;;8.43;1.90;;;22.50;70.10;;;;;;5089108;28;20632;-82
2021/05/02 09:43:41;;;;;;;3.17;1.60;;;24.40;63.90;;;;;;5073035;28;20269;-82
2021/05/02 09:46:29;;;;;;;4.13;1.63;;;27.10;59.70;;;;;;5073538;28;20174;-83
2021/05/02 09:49:15;;;;;;;4.93;1.75;;;29.20;57.40;;;;;;5074081;28;20224;-83
2021/05/02 09:51:52;;;;;;;6.47;1.33;;;30.60;58.20;;;;;;5058822;28;20212;-82
2021/05/02 09:54:19;;;;;;;3.15;1.50;;;31.90;53.60;;;;;;5073730;28;20163;-80
2021/05/02 09:56:50;;;;;;;4.22;1.48;;;31.80;53.50;;;;;;5054675;28;20210;-81
2021/05/02 09:59:33;;;;;;;4.82;1.80;;;30.90;52.80;;;;;;5053314;28;20159;-80
2021/05/02 10:02:05;;;;;;;4.80;1.30;;;26.70;56.30;;;;;;5056126;28;20187;-81
2021/05/02 10:04:31;;;;;;;2.72;1.35;;;24.70;59.30;;;;;;5074282;28;20481;-82
2021/05/02 10:06:58;;;;;;;6.15;1.65;;;24.00;64.80;;;;;;5074156;28;20207;-82
2021/05/02 10:09:24;;;;;;;3.47;1.40;;;25.70;59.60;;;;;;5073144;28;20185;-82
2021/05/02 10:11:50;;;;;;;6.75;2.15;;;25.10;61.70;;;;;;5074220;28;20167;-81
2021/05/02 10:14:16;;;;;;;7.00;1.52;;;23.40;65.10;;;;;;5073994;28;20170;-81
2021/05/02 10:16:42;;;;;;;3.17;1.65;;;22.10;65.70;;;;;;5073143;28;20253;-81
2021/05/02 10:19:10;;;;;;;4.50;1.70;;;20.60;68.40;;;;;;5072984;28;20634;-81
2021/05/02 10:21:39;;;;;;;3.15;1.85;;;19.80;71.40;;;;;;5072873;28;20560;-81
2021/05/02 10:24:06;;;;;;;3.70;1.55;;;19.20;71.40;;;;;;5072431;28;20179;-80
2021/05/02 10:26:32;;;;;;;3.35;1.27;;;19.10;70.70;;;;;;5071818;28;20532;-80
2021/05/02 10:28:58;;;;;;;7.07;1.85;;;19.10;69.70;;;;;;5072670;28;20262;-81
2021/05/02 10:31:30;;;;;;;4.78;1.52;;;20.30;69.50;;;;;;5073914;28;20626;-81
2021/05/02 10:33:56;;;;;;;8.43;1.70;;;23.10;66.80;;;;;;5072029;28;20224;-81
2021/05/02 10:36:23;;;;;;;3.17;1.33;;;26.10;63.50;;;;;;5073986;28;20171;-81
2021/05/02 10:39:00;;;;;;;6.85;1.98;;;29.00;58.40;;;;;;5072885;28;20775;-81
2021/05/02 10:41:31;;;;;;;4.00;1.42;;;27.70;57.00;;;;;;5073954;28;20151;-81
2021/05/02 10:44:19;;;;;;;5.65;1.70;;;24.50;60.70;;;;;;5073559;28;20512;-81
2021/05/02 10:46:56;;;;;;;3.90;1.88;;;23.10;62.10;;;;;;5073687;28;20202;-81
2021/05/02 10:49:22;;;;;;;8.18;1.67;;;21.50;66.80;;;;;;5072490;28;20190;-80
2021/05/02 10:51:53;;;;;;;2.65;1.60;;;20.00;70.00;;;;;;5072191;28;20227;-83
2021/05/02 10:54:21;;;;;;;4.03;1.73;;;19.00;74.00;;;;;;5072347;28;20167;-82
2021/05/02 10:56:50;;;;;;;4.32;1.90;;;18.40;76.20;;;;;;5071976;28;20175;-82
2021/05/02 10:59:17;;;;;;;9.45;2.47;;;17.90;77.60;;;;;;5072280;28;20174;-82
2021/05/02 11:01:44;;;;;;;7.05;1.90;;;17.40;79.80;;;;;;5073202;28;20582;-81
2021/05/02 11:04:10;;;;;;;4.10;2.33;;;17.00;80.70;;;;;;5072083;28;20202;-82
2021/05/02 11:06:38;;;;;;;3.40;2.10;;;16.70;82.20;;;;;;5073409;28;20511;-82
2021/05/02 11:09:09;;;;;;;5.97;2.05;;;16.50;82.40;;;;;;5073567;28;20163;-81
2021/05/02 11:11:47;;;;;;;6.35;1.92;;;17.30;82.30;;;;;;5071828;28;20171;-82
2021/05/02 11:14:17;;;;;;;3.55;1.52;;;20.80;77.30;;;;;;5072085;28;20181;-82
2021/05/02 11:17:10;;;;;;;5.18;1.52;;;24.60;65.80;;;;;;5052273;28;20175;-83
2021/05/02 11:19:35;;;;;;;3.30;1.20;;;26.20;59.60;;;;;;5052401;28;20265;-85
2021/05/02 11:22:03;;;;;;;2.83;1.20;;;27.60;56.50;;;;;;5072941;28;20266;-83
2021/05/02 11:24:38;;;;;;;3.15;1.40;;;24.40;59.80;;;;;;5072985;28;20285;-82
2021/05/02 11:27:09;;;;;;;3.08;1.40;;;22.70;63.40;;;;;;5073306;28;20201;-82
2021/05/02 11:30:03;;;;;;;5.40;1.52;;;21.70;65.70;;;;;;5072106;28;20167;-82
2021/05/02 11:32:29;;;;;;;3.10;1.80;;;20.60;67.50;;;;;;5073112;28;20159;-82
2021/05/02 11:35:09;;;;;;;5.95;1.80;;;20.00;69.10;;;;;;5071619;28;20190;-82
2021/05/02 11:37:44;;;;;;;2.35;1.42;;;19.00;71.70;;;;;;5071827;28;20170;-82
2021/05/02 11:40:28;;;;;;;1.38;1.10;;;19.10;72.10;;;;;;5075860;28;20184;-82
2021/05/02 11:43:04;;;;;;;2.40;1.75;;;19.50;70.20;;;;;;5077086;28;20163;-82
2021/05/02 11:45:44;;;;;;;3.78;1.85;;;20.80;69.60;;;;;;5077392;28;20174;-82
2021/05/02 11:48:18;;;;;;;2.47;1.65;;;20.70;71.40;;;;;;5075907;28;20237;-82
2021/05/02 11:50:44;;;;;;;8.77;2.53;;;19.40;73.40;;;;;;5075699;28;20181;-82
2021/05/02 11:53:10;;;;;;;3.28;1.90;;;19.00;76.40;;;;;;5077067;28;20654;-82
2021/05/02 11:55:40;;;;;;;2.83;1.80;;;18.20;76.10;;;;;;5076742;28;20171;-84
2021/05/02 11:58:11;;;;;;;5.00;1.75;;;17.70;78.60;;;;;;5075245;28;20261;-83
2021/05/02 12:00:48;;;;;;;4.82;2.58;;;17.30;79.80;;;;;;5071712;28;20190;-80
2021/05/02 12:03:32;;;;;;;3.42;2.25;;;17.00;80.10;;;;;;5074939;28;20620;-81
2021/05/02 12:05:58;;;;;;;4.63;2.33;;;16.60;82.50;;;;;;5076468;28;20167;-81
2021/05/02 12:08:25;;;;;;;4.07;2.45;;;15.90;83.40;;;;;;5074665;28;20210;-80
2021/05/02 12:10:53;;;;;;;7.38;2.72;;;15.50;86.20;;;;;;5076177;28;20639;-80
2021/05/02 12:13:43;;;;;;;4.78;2.20;;;15.30;87.90;;;;;;5076447;28;20665;-82
2021/05/02 12:16:11;;;;;;;2.13;1.90;;;15.40;88.40;;;;;;5076060;28;20622;-81
2021/05/02 12:18:52;;;;;;;4.28;2.25;;;16.00;87.60;;;;;;5076067;28;20224;-81
2021/05/02 12:21:31;;;;;;;2.55;2.05;;;16.70;84.70;;;;;;5076358;28;20603;-81
2021/05/02 12:24:11;;;;;;;8.63;2.03;;;19.00;78.70;;;;;;5076017;28;20155;-81
2021/05/02 12:26:43;;;;;;;4.35;1.92;;;20.20;74.40;;;;;;5091870;28;20165;-81
2021/05/02 12:29:17;;;;;;;6.88;1.75;;;20.60;73.30;;;;;;5075700;28;20171;-81
2021/05/02 12:31:49;;;;;;;3.75;1.80;;;20.40;74.10;;;;;;5074063;28;20615;-81
2021/05/02 12:34:15;;;;;;;4.15;1.73;;;20.10;74.60;;;;;;5074874;28;20252;-81
2021/05/02 12:36:41;;;;;;;4.07;2.10;;;19.60;73.10;;;;;;5076144;28;20178;-81
2021/05/02 12:39:09;;;;;;;2.00;1.80;;;19.60;74.00;;;;;;5074678;28;20513;-81
2021/05/02 12:41:37;;;;;;;4.05;1.90;;;19.10;74.50;;;;;;5075892;28;20191;-81
2021/05/02 12:44:22;;;;;;;4.65;2.40;;;18.40;74.90;;;;;;4977604;28;20276;-80
2021/05/02 12:46:51;;;;;;;4.20;2.17;;;18.10;75.80;;;;;;4991977;28;20649;-81
2021/05/02 12:49:22;;;;;;;4.88;2.55;;;18.10;76.30;;;;;;4974619;28;20237;-81